Time;durP1;ratioP1;P1;durP2;ratioP2;P2;SDS_P1;SDS_P2;PMS_P1;PMS_P2;Temp;Humidity;BMP_temperature;BMP_pressure;BME280_temperature;BME280_humidity;BME280_pressure;Samples;Min_cycle;Max_cycle;Signal;HPM_P1;HPM_P2
2023/03/20 00:04:06;;;;;;;;;;;;;;;8.28;100.00;95868.69;10400099;28;1993;-68
2023/03/20 00:09:08;;;;;;;;;;;;;;;8.26;100.00;95866.25;10403107;28;1954;-69
2023/03/20 00:14:12;;;;;;;;;;;;;;;8.27;100.00;95865.22;10400603;28;1946;-74
2023/03/20 00:19:14;;;;;;;;;;;;;;;8.21;100.00;95862.75;10404035;28;2029;-70
2023/03/20 00:24:16;;;;;;;;;;;;;;;8.21;100.00;95866.25;10408005;28;1994;-68
2023/03/20 00:29:19;;;;;;;;;;;;;;;8.21;100.00;95862.75;10396335;28;1958;-66
2023/03/20 00:34:22;;;;;;;;;;;;;;;8.13;100.00;95862.13;10398695;28;2001;-67
2023/03/20 00:39:25;;;;;;;;;;;;;;;8.12;100.00;95863.19;10406130;28;2131;-72
2023/03/20 00:44:28;;;;;;;;;;;;;;;8.13;100.00;95862.13;10393658;28;2014;-69
2023/03/20 00:49:31;;;;;;;;;;;;;;;8.12;100.00;95870.44;10390036;28;2074;-68
2023/03/20 00:54:34;;;;;;;;;;;;;;;8.10;100.00;95861.84;10398991;28;1934;-67
2023/03/20 00:59:36;;;;;;;;;;;;;;;8.06;100.00;95855.38;10395956;28;1998;-67
2023/03/20 01:04:39;;;;;;;;;;;;;;;8.06;100.00;95856.19;10398597;28;1997;-66
2023/03/20 01:09:42;;;;;;;;;;;;;;;8.06;100.00;95861.53;10396600;28;2021;-67
2023/03/20 01:14:45;;;;;;;;;;;;;;;8.04;100.00;95863.69;10400125;28;2112;-72
2023/03/20 01:19:48;;;;;;;;;;;;;;;8.02;100.00;95856.97;10395676;28;1958;-66
2023/03/20 01:24:51;;;;;;;;;;;;;;;8.01;100.00;95858.00;10396763;28;2033;-68
2023/03/20 01:29:54;;;;;;;;;;;;;;;8.06;100.00;95864.22;10398384;28;1962;-67
2023/03/20 01:34:58;;;;;;;;;;;;;;;8.08;100.00;95867.47;10396784;28;2056;-67
2023/03/20 01:40:00;;;;;;;;;;;;;;;8.10;100.00;95862.66;10396198;28;2111;-68
2023/03/20 01:45:03;;;;;;;;;;;;;;;8.07;100.00;95863.16;10398758;28;1976;-70
2023/03/20 01:50:06;;;;;;;;;;;;;;;8.03;100.00;95854.03;10410669;28;1598;-67
2023/03/20 01:55:09;;;;;;;;;;;;;;;8.09;100.00;95861.06;10410191;28;1638;-66
2023/03/20 02:00:12;;;;;;;;;;;;;;;8.10;100.00;95851.16;10394958;28;1900;-70
2023/03/20 02:05:15;;;;;;;;;;;;;;;8.12;100.00;95859.72;10394597;28;1968;-67
2023/03/20 02:10:17;;;;;;;;;;;;;;;8.12;100.00;95849.81;10394996;28;1990;-68
2023/03/20 02:15:20;;;;;;;;;;;;;;;8.12;100.00;95849.00;10391139;28;2030;-67
2023/03/20 02:20:23;;;;;;;;;;;;;;;8.12;100.00;95855.16;10386140;28;2020;-68
2023/03/20 02:25:30;;;;;;;;;;;;;;;8.14;100.00;95852.22;10393435;28;1984;-66
2023/03/20 02:30:33;;;;;;;;;;;;;;;8.09;100.00;95847.66;10393642;28;2083;-65
2023/03/20 02:35:37;;;;;;;;;;;;;;;8.08;100.00;95856.75;10389284;28;2119;-67
2023/03/20 02:40:40;;;;;;;;;;;;;;;8.07;100.00;95847.09;10403497;28;2051;-67
2023/03/20 02:45:43;;;;;;;;;;;;;;;8.08;100.00;95856.75;10394353;28;2055;-67
2023/03/20 02:50:45;;;;;;;;;;;;;;;8.07;100.00;95847.09;10393092;28;2134;-66
2023/03/20 02:55:48;;;;;;;;;;;;;;;8.07;100.00;95855.13;10389222;28;2062;-66
2023/03/20 03:00:51;;;;;;;;;;;;;;;8.07;100.00;95851.66;10389413;28;2020;-71
2023/03/20 03:05:55;;;;;;;;;;;;;;;8.06;100.00;95856.19;10384353;28;1919;-66
2023/03/20 03:11:07;;;;;;;;;;;;;;;8.07;100.00;95852.44;10397560;28;1970;-66
2023/03/20 03:16:10;;;;;;;;;;;;;;;8.06;100.00;95861.53;10393638;28;1973;-65
2023/03/20 03:21:13;;;;;;;;;;;;;;;8.09;100.00;95853.03;10394170;28;2055;-67
2023/03/20 03:26:17;;;;;;;;;;;;;;;8.06;100.00;95860.75;10400080;28;2092;-65
2023/03/20 03:31:20;;;;;;;;;;;;;;;8.00;100.00;95859.09;10395974;28;2012;-68
2023/03/20 03:36:23;;;;;;;;;;;;;;;8.00;100.00;95862.56;10405286;28;1984;-67
2023/03/20 03:41:26;;;;;;;;;;;;;;;7.91;100.00;95874.81;10413790;28;1995;-75
2023/03/20 03:46:32;;;;;;;;;;;;;;;7.93;100.00;95880.72;10396279;28;1975;-68
2023/03/20 03:51:35;;;;;;;;;;;;;;;7.94;100.00;95873.47;10398305;28;1927;-70
2023/03/20 03:56:38;;;;;;;;;;;;;;;7.92;100.00;95881.78;10395809;28;2110;-67
2023/03/20 04:01:43;;;;;;;;;;;;;;;7.93;100.00;95882.56;10402955;28;2044;-69
2023/03/20 04:06:46;;;;;;;;;;;;;;;7.89;100.00;95887.66;10396821;28;2017;-74
2023/03/20 04:11:48;;;;;;;;;;;;;;;7.91;100.00;95901.56;10400882;28;1975;-69
2023/03/20 04:16:52;;;;;;;;;;;;;;;7.83;100.00;95902.84;10398641;28;2196;-67
2023/03/20 04:21:55;;;;;;;;;;;;;;;7.78;100.00;95907.34;10393392;28;2091;-69
2023/03/20 04:26:58;;;;;;;;;;;;;;;7.72;100.00;95908.34;10397892;28;2100;-66
2023/03/20 04:32:00;;;;;;;;;;;;;;;7.68;100.00;95907.22;10405323;28;1982;-66
2023/03/20 04:37:07;;;;;;;;;;;;;;;7.60;100.00;95916.50;10394776;28;2076;-66
2023/03/20 04:42:10;;;;;;;;;;;;;;;7.61;100.00;95911.97;10401632;28;2052;-68
2023/03/20 04:47:14;;;;;;;;;;;;;;;7.47;100.00;95915.03;10396320;28;1971;-67
2023/03/20 04:52:17;;;;;;;;;;;;;;;7.51;100.00;95920.69;10395002;28;2022;-66
2023/03/20 04:57:20;;;;;;;;;;;;;;;7.56;100.00;95916.19;10399392;28;2124;-67
2023/03/20 05:02:22;;;;;;;;;;;;;;;7.51;100.00;95918.84;10391668;28;2142;-67
2023/03/20 05:07:25;;;;;;;;;;;;;;;7.52;100.00;95925.00;10394029;28;2041;-68
2023/03/20 05:12:27;;;;;;;;;;;;;;;7.46;100.00;95926.78;10396143;28;1993;-66
2023/03/20 05:17:30;;;;;;;;;;;;;;;7.44;100.00;95923.53;10397621;28;2092;-67
2023/03/20 05:22:32;;;;;;;;;;;;;;;7.36;100.00;95931.19;10391533;28;2052;-67
2023/03/20 05:27:35;;;;;;;;;;;;;;;7.45;100.00;95935.88;10398400;28;2096;-73
2023/03/20 05:32:47;;;;;;;;;;;;;;;7.39;100.00;95947.56;10388269;28;2115;-67
2023/03/20 05:37:50;;;;;;;;;;;;;;;7.40;100.00;95943.03;10401854;28;2150;-67
2023/03/20 05:42:53;;;;;;;;;;;;;;;7.46;100.00;95955.41;10401403;28;1992;-69
2023/03/20 05:47:56;;;;;;;;;;;;;;;7.37;100.00;95944.31;10392353;28;2147;-66
2023/03/20 05:52:58;;;;;;;;;;;;;;;7.41;100.00;95958.00;10393931;28;2053;-66
2023/03/20 05:58:00;;;;;;;;;;;;;;;7.35;100.00;95961.69;10386652;28;1971;-66
2023/03/20 06:03:03;;;;;;;;;;;;;;;7.40;100.00;95975.13;10396608;28;1950;-65
2023/03/20 06:08:06;;;;;;;;;;;;;;;7.41;100.00;95976.72;10398111;28;1954;-66
2023/03/20 06:13:08;;;;;;;;;;;;;;;7.48;100.00;95980.03;10394699;28;2010;-69
2023/03/20 06:18:10;;;;;;;;;;;;;;;7.54;100.00;95987.06;10398140;28;1923;-67
2023/03/20 06:23:14;;;;;;;;;;;;;;;7.63;100.00;95992.78;10397666;28;1959;-67
2023/03/20 06:28:16;;;;;;;;;;;;;;;7.62;100.00;95991.97;10395760;28;2045;-68
2023/03/20 06:33:19;;;;;;;;;;;;;;;7.63;100.00;96001.59;10383809;28;2010;-67
2023/03/20 06:38:22;;;;;;;;;;;;;;;7.71;100.00;96003.88;10389436;28;1965;-67
2023/03/20 06:43:25;;;;;;;;;;;;;;;7.56;100.00;96003.66;10391161;28;2081;-69
2023/03/20 06:48:28;;;;;;;;;;;;;;;7.81;100.00;96003.16;10388023;28;1979;-69
2023/03/20 06:53:30;;;;;;;;;;;;;;;7.73;100.00;96004.41;10399040;28;2083;-67
2023/03/20 06:58:33;;;;;;;;;;;;;;;7.90;100.00;96007.03;10393928;28;2098;-70
2023/03/20 07:03:35;;;;;;;;;;;;;;;8.27;100.00;96000.97;10401487;28;2008;-68
2023/03/20 07:08:38;;;;;;;;;;;;;;;8.64;100.00;95996.50;10396247;28;2081;-69
2023/03/20 07:13:40;;;;;;;;;;;;;;;8.94;100.00;95993.25;10401458;28;2128;-68
2023/03/20 07:18:43;;;;;;;;;;;;;;;9.12;100.00;95997.41;10400377;28;2053;-68
2023/03/20 07:23:46;;;;;;;;;;;;;;;9.07;100.00;96007.28;10389769;28;2044;-69
2023/03/20 07:28:48;;;;;;;;;;;;;;;9.01;100.00;96016.38;10390513;28;2005;-68
2023/03/20 07:33:52;;;;;;;;;;;;;;;9.01;100.00;96011.81;10393206;28;1945;-67
2023/03/20 07:38:54;;;;;;;;;;;;;;;8.84;100.00;96027.22;10399796;28;2143;-67
2023/03/20 07:43:57;;;;;;;;;;;;;;;8.99;100.00;96027.34;10400094;28;1959;-67
2023/03/20 07:48:59;;;;;;;;;;;;;;;8.96;100.00;96030.53;10399775;28;1996;-69
2023/03/20 07:54:02;;;;;;;;;;;;;;;9.13;100.00;96033.88;10398938;28;2054;-76
2023/03/20 07:59:05;;;;;;;;;;;;;;;9.43;100.00;96029.78;10400848;28;1979;-77
2023/03/20 08:04:08;;;;;;;;;;;;;;;9.87;100.00;96024.09;10398154;28;1930;-68
2023/03/20 08:09:11;;;;;;;;;;;;;;;9.89;100.00;96017.38;10403058;28;1961;-69
2023/03/20 08:14:13;;;;;;;;;;;;;;;10.27;100.00;96018.88;10397521;28;2041;-68
2023/03/20 08:19:16;;;;;;;;;;;;;;;10.47;100.00;96023.47;10391316;28;1978;-69
2023/03/20 08:24:18;;;;;;;;;;;;;;;10.18;100.00;96028.50;10396650;28;2052;-67
2023/03/20 08:29:20;;;;;;;;;;;;;;;10.39;100.00;96025.91;10398453;28;2123;-68
2023/03/20 08:34:25;;;;;;;;;;;;;;;10.59;100.00;96014.38;10389413;28;2106;-69
2023/03/20 08:39:38;;;;;;;;;;;;;;;11.03;100.00;96010.06;10402222;28;1930;-68
2023/03/20 08:44:40;;;;;;;;;;;;;;;10.96;100.00;96006.84;10401773;28;2064;-68
2023/03/20 08:49:43;;;;;;;;;;;;;;;11.79;100.00;96001.00;10394047;28;2028;-69
2023/03/20 08:54:46;;;;;;;;;;;;;;;12.15;100.00;95996.28;10394251;28;2059;-68
2023/03/20 08:59:49;;;;;;;;;;;;;;;12.71;100.00;96004.00;10391919;28;2104;-68
2023/03/20 09:04:51;;;;;;;;;;;;;;;12.43;100.00;96000.16;10396981;28;1953;-68
2023/03/20 09:09:53;;;;;;;;;;;;;;;13.08;100.00;96004.53;10400089;28;1958;-68
2023/03/20 09:14:56;;;;;;;;;;;;;;;13.08;100.00;96005.34;10396674;28;2073;-73
2023/03/20 09:20:08;;;;;;;;;;;;;;;12.55;100.00;96007.09;10403177;28;1970;-68
2023/03/20 09:25:11;;;;;;;;;;;;;;;12.70;100.00;96007.00;10388310;28;2026;-68
2023/03/20 09:30:13;;;;;;;;;;;;;;;12.66;100.00;96014.03;10392463;28;1982;-68
2023/03/20 09:35:17;;;;;;;;;;;;;;;12.28;100.00;96011.06;10385934;28;2028;-71
2023/03/20 09:40:20;;;;;;;;;;;;;;;12.27;100.00;96014.00;10426397;28;1987;-69
2023/03/20 09:45:24;;;;;;;;;;;;;;;12.41;100.00;96013.13;10391292;28;2034;-70
2023/03/20 09:50:27;;;;;;;;;;;;;;;12.59;100.00;96005.44;10393415;28;2041;-68
2023/03/20 09:55:29;;;;;;;;;;;;;;;12.78;100.00;96002.88;10387603;28;2029;-68
2023/03/20 10:00:32;;;;;;;;;;;;;;;12.73;100.00;95997.53;10389827;28;1985;-67
2023/03/20 10:05:36;;;;;;;;;;;;;;;12.96;100.00;96002.19;10394894;28;2184;-68
2023/03/20 10:10:39;;;;;;;;;;;;;;;12.78;100.00;96000.19;10393511;28;1993;-68
2023/03/20 10:15:43;;;;;;;;;;;;;;;12.58;100.00;95999.25;10400121;28;2053;-68
2023/03/20 10:20:46;;;;;;;;;;;;;;;12.76;100.00;95989.69;10396705;28;2034;-69
2023/03/20 10:25:52;;;;;;;;;;;;;;;12.08;100.00;95998.47;10391739;28;1961;-68
2023/03/20 10:30:55;;;;;;;;;;;;;;;11.32;100.00;95994.16;10404980;28;1979;-68
2023/03/20 10:35:58;;;;;;;;;;;;;;;11.72;100.00;95988.91;10401394;28;2210;-68
2023/03/20 10:41:03;;;;;;;;;;;;;;;12.20;100.00;95989.25;10402687;28;1995;-68
2023/03/20 10:46:06;;;;;;;;;;;;;;;12.64;100.00;95976.56;10399215;28;1946;-68
2023/03/20 10:51:10;;;;;;;;;;;;;;;13.42;100.00;95966.69;10404169;28;1978;-68
2023/03/20 10:56:13;;;;;;;;;;;;;;;14.09;100.00;95962.09;10408669;28;1911;-69
2023/03/20 11:01:20;;;;;;;;;;;;;;;13.88;100.00;95964.28;10404789;28;2005;-68
2023/03/20 11:06:23;;;;;;;;;;;;;;;13.34;100.00;95965.44;10406931;28;2179;-69
2023/03/20 11:11:32;;;;;;;;;;;;;;;13.23;100.00;95958.50;10404644;28;1992;-68
2023/03/20 11:16:35;;;;;;;;;;;;;;;13.81;100.00;95947.63;10397393;28;2060;-69
2023/03/20 11:21:38;;;;;;;;;;;;;;;14.48;100.00;95940.22;10400701;28;1967;-69
2023/03/20 11:26:43;;;;;;;;;;;;;;;14.37;100.00;95943.31;10405435;28;1914;-69
2023/03/20 11:31:45;;;;;;;;;;;;;;;14.49;94.89;95951.84;10404185;28;2048;-68
2023/03/20 11:36:48;;;;;;;;;;;;;;;14.32;98.59;95944.22;10396202;28;2297;-68
2023/03/20 11:42:11;;;;;;;;;;;;;;;14.10;97.38;95949.41;10394021;28;1981;-71
2023/03/20 11:47:16;;;;;;;;;;;;;;;13.89;96.94;95938.06;10403181;28;1959;-73
2023/03/20 11:52:19;;;;;;;;;;;;;;;13.62;95.80;95935.97;10403705;28;1844;-69
2023/03/20 11:57:26;;;;;;;;;;;;;;;14.01;94.12;95941.94;10395017;28;2175;-68
2023/03/20 12:02:28;;;;;;;;;;;;;;;14.19;93.39;95926.84;10400854;28;2063;-68
2023/03/20 12:07:31;;;;;;;;;;;;;;;13.87;95.74;95935.66;10406479;28;1967;-69
2023/03/20 12:12:34;;;;;;;;;;;;;;;13.41;100.00;95930.78;10396496;28;1978;-68
2023/03/20 12:17:36;;;;;;;;;;;;;;;13.30;100.00;95937.41;10390282;28;2127;-67
2023/03/20 12:22:38;;;;;;;;;;;;;;;13.28;100.00;95936.88;10397517;28;2061;-71
2023/03/20 12:27:41;;;;;;;;;;;;;;;13.07;100.00;95940.84;10390747;28;2148;-68
2023/03/20 12:32:44;;;;;;;;;;;;;;;13.19;100.00;95925.06;10399627;28;1962;-69
2023/03/20 12:37:47;;;;;;;;;;;;;;;12.85;100.00;95923.25;10406039;28;2150;-68
2023/03/20 12:42:51;;;;;;;;;;;;;;;12.98;100.00;95914.50;10396141;28;1989;-69
2023/03/20 12:47:53;;;;;;;;;;;;;;;12.84;100.00;95915.44;10391100;28;2010;-72
2023/03/20 12:52:56;;;;;;;;;;;;;;;12.82;100.00;95914.91;10395542;28;2011;-69
2023/03/20 12:57:59;;;;;;;;;;;;;;;12.74;100.00;95912.84;10402258;28;2005;-68
2023/03/20 13:03:02;;;;;;;;;;;;;;;12.52;100.00;95924.88;10388681;28;2021;-70
2023/03/20 13:08:07;;;;;;;;;;;;;;;12.77;100.00;95921.16;10399234;28;1950;-68
2023/03/20 13:13:12;;;;;;;;;;;;;;;12.78;100.00;95924.66;10398363;28;1953;-69
2023/03/20 13:18:16;;;;;;;;;;;;;;;12.59;100.00;95916.44;10392731;28;1975;-68
2023/03/20 13:23:18;;;;;;;;;;;;;;;12.68;100.00;95914.78;10392510;28;1955;-68
2023/03/20 13:28:22;;;;;;;;;;;;;;;13.27;100.00;95910.16;10387363;28;2076;-74
2023/03/20 13:33:29;;;;;;;;;;;;;;;13.63;98.14;95899.75;10388627;28;2031;-67
2023/03/20 13:38:32;;;;;;;;;;;;;;;13.56;96.21;95902.00;10399386;28;2578;-69
2023/03/20 13:43:34;;;;;;;;;;;;;;;13.48;98.31;95904.25;10395646;28;2148;-68
2023/03/20 13:48:38;;;;;;;;;;;;;;;13.61;97.35;95899.22;10396866;28;2078;-68
2023/03/20 13:53:42;;;;;;;;;;;;;;;13.21;97.65;95887.81;10406075;28;1585;-69
2023/03/20 13:58:45;;;;;;;;;;;;;;;12.99;99.64;95891.81;10405625;28;1644;-68
2023/03/20 14:03:48;;;;;;;;;;;;;;;12.77;100.00;95887.97;10394835;28;1993;-68
2023/03/20 14:08:51;;;;;;;;;;;;;;;13.11;99.91;95877.13;10396553;28;1970;-68
2023/03/20 14:13:54;;;;;;;;;;;;;;;12.82;99.08;95880.66;10391731;28;2063;-69
2023/03/20 14:18:57;;;;;;;;;;;;;;;12.65;98.39;95872.19;10388883;28;1954;-71
2023/03/20 14:24:00;;;;;;;;;;;;;;;12.75;99.47;95865.91;10388694;28;2048;-71
2023/03/20 14:29:02;;;;;;;;;;;;;;;12.87;96.96;95872.50;10393928;28;2048;-69
2023/03/20 14:34:05;;;;;;;;;;;;;;;13.13;94.93;95853.34;10388220;28;1994;-68
2023/03/20 14:39:08;;;;;;;;;;;;;;;12.74;98.27;95870.50;10389446;28;2152;-68
2023/03/20 14:44:11;;;;;;;;;;;;;;;12.80;100.00;95858.56;10385391;28;1977;-70
2023/03/20 14:49:14;;;;;;;;;;;;;;;13.07;98.20;95859.91;10391381;28;1977;-67
2023/03/20 14:54:18;;;;;;;;;;;;;;;13.43;94.14;95858.41;10397813;28;1969;-69
2023/03/20 14:59:21;;;;;;;;;;;;;;;13.13;93.70;95861.44;10388932;28;2014;-67
2023/03/20 15:04:24;;;;;;;;;;;;;;;13.05;95.40;95848.59;10390972;28;1966;-68
2023/03/20 15:09:27;;;;;;;;;;;;;;;12.87;95.14;95853.63;10391432;28;2030;-68
2023/03/20 15:14:30;;;;;;;;;;;;;;;12.88;96.51;95859.81;10403281;28;2117;-69
2023/03/20 15:19:37;;;;;;;;;;;;;;;12.69;96.69;95857.84;10405095;28;1996;-68
2023/03/20 15:24:40;;;;;;;;;;;;;;;12.64;97.60;95859.78;10397411;28;2008;-69
2023/03/20 15:29:42;;;;;;;;;;;;;;;12.01;100.00;95846.28;10400900;28;2076;-78
2023/03/20 15:34:54;;;;;;;;;;;;;;;12.11;100.00;95847.03;10397360;28;2077;-75
2023/03/20 15:39:59;;;;;;;;;;;;;;;12.04;100.00;95843.06;10401389;28;2123;-68
2023/03/20 15:45:01;;;;;;;;;;;;;;;12.10;100.00;95850.00;10395738;28;2060;-71
2023/03/20 15:50:04;;;;;;;;;;;;;;;12.06;100.00;95851.66;10402713;28;1977;-70
2023/03/20 15:55:06;;;;;;;;;;;;;;;11.75;100.00;95843.72;10409570;28;1991;-69
2023/03/20 16:00:09;;;;;;;;;;;;;;;12.06;100.00;95846.25;10402388;28;1971;-69
2023/03/20 16:05:13;;;;;;;;;;;;;;;12.16;98.71;95841.59;10406077;28;1961;-69
2023/03/20 16:10:17;;;;;;;;;;;;;;;11.85;100.00;95841.03;10411006;28;1982;-70
2023/03/20 16:15:19;;;;;;;;;;;;;;;11.56;100.00;95834.69;10402430;28;1974;-67
2023/03/20 16:20:22;;;;;;;;;;;;;;;11.25;100.00;95831.34;10400651;28;2136;-68
2023/03/20 16:25:25;;;;;;;;;;;;;;;11.16;100.00;95836.50;10401778;28;2194;-68
2023/03/20 16:30:28;;;;;;;;;;;;;;;10.93;100.00;95834.44;10399727;28;2076;-69
2023/03/20 16:35:31;;;;;;;;;;;;;;;10.95;100.00;95824.22;10394006;28;1966;-67
2023/03/20 16:40:34;;;;;;;;;;;;;;;10.80;100.00;95831.25;10393260;28;2081;-69
2023/03/20 16:45:37;;;;;;;;;;;;;;;10.66;100.00;95835.59;10396678;28;2111;-69
2023/03/20 16:50:40;;;;;;;;;;;;;;;10.50;100.00;95834.81;10382404;28;2213;-68
2023/03/20 16:55:44;;;;;;;;;;;;;;;10.51;100.00;95824.88;10391305;28;2007;-69
2023/03/20 17:00:47;;;;;;;;;;;;;;;10.39;100.00;95840.47;10392493;28;2049;-68
2023/03/20 17:05:49;;;;;;;;;;;;;;;10.37;100.00;95850.66;10396144;28;2044;-70
2023/03/20 17:10:52;;;;;;;;;;;;;;;10.20;100.00;95865.16;10394794;28;2114;-69
2023/03/20 17:16:04;;;;;;;;;;;;;;;9.96;100.00;95866.75;10388296;28;2026;-68
2023/03/20 17:21:17;;;;;;;;;;;;;;;9.85;100.00;95857.88;10388330;28;1990;-67
2023/03/20 17:26:20;;;;;;;;;;;;;;;9.79;100.00;95866.19;10395782;28;1910;-68
2023/03/20 17:31:23;;;;;;;;;;;;;;;9.63;100.00;95871.53;10393003;28;2079;-70
2023/03/20 17:36:26;;;;;;;;;;;;;;;9.38;100.00;95866.91;10391865;28;1987;-74
2023/03/20 17:41:29;;;;;;;;;;;;;;;9.26;100.00;95865.53;10396316;28;1995;-69
2023/03/20 17:46:32;;;;;;;;;;;;;;;9.04;100.00;95868.38;10404941;28;1955;-69
2023/03/20 17:51:51;;;;;;;;;;;;;;;9.00;100.00;95873.44;10392602;28;1961;-69
2023/03/20 17:56:53;;;;;;;;;;;;;;;8.74;100.00;95877.88;10392576;28;1986;-69
2023/03/20 18:01:56;;;;;;;;;;;;;;;8.74;100.00;95875.19;10399936;28;1990;-70
2023/03/20 18:06:59;;;;;;;;;;;;;;;8.68;100.00;95878.09;10409862;28;1989;-68
2023/03/20 18:12:02;;;;;;;;;;;;;;;8.65;100.00;95885.59;10393282;28;2182;-69
2023/03/20 18:17:05;;;;;;;;;;;;;;;8.60;100.00;95885.56;10397926;28;2207;-67
2023/03/20 18:22:07;;;;;;;;;;;;;;;8.45;100.00;95880.09;10401702;28;1998;-68
2023/03/20 18:27:10;;;;;;;;;;;;;;;8.47;100.00;95879.84;10398187;28;1997;-68
2023/03/20 18:32:13;;;;;;;;;;;;;;;8.31;100.00;95877.00;10394495;28;1993;-67
2023/03/20 18:37:16;;;;;;;;;;;;;;;8.21;100.00;95876.94;10396972;28;2311;-68
2023/03/20 18:42:18;;;;;;;;;;;;;;;8.21;100.00;95876.16;10413277;28;1951;-67
2023/03/20 18:47:21;;;;;;;;;;;;;;;8.18;100.00;95882.81;10417431;28;2026;-68
2023/03/20 18:52:24;;;;;;;;;;;;;;;8.20;100.00;95882.53;10413084;28;2143;-66
2023/03/20 18:57:27;;;;;;;;;;;;;;;8.16;100.00;95886.81;10410628;28;2064;-67
2023/03/20 19:02:29;;;;;;;;;;;;;;;8.16;100.00;95894.84;10404365;28;2070;-68
2023/03/20 19:07:33;;;;;;;;;;;;;;;8.10;100.00;95892.13;10398696;28;2080;-70
2023/03/20 19:12:35;;;;;;;;;;;;;;;8.18;100.00;95903.41;10401802;28;2107;-68
2023/03/20 19:17:38;;;;;;;;;;;;;;;8.34;100.00;95897.13;10393189;28;2163;-74
2023/03/20 19:22:41;;;;;;;;;;;;;;;8.37;100.00;95900.13;10401359;28;2000;-72
2023/03/20 19:27:44;;;;;;;;;;;;;;;8.41;100.00;95899.63;10403527;28;1501;-68
2023/03/20 19:32:47;;;;;;;;;;;;;;;8.41;100.00;95897.75;10402717;28;1906;-67
2023/03/20 19:37:51;;;;;;;;;;;;;;;8.34;100.00;95905.97;10408565;28;1502;-67
2023/03/20 19:42:53;;;;;;;;;;;;;;;8.29;100.00;95907.81;10411335;28;1548;-68
2023/03/20 19:48:04;;;;;;;;;;;;;;;8.28;100.00;95901.63;10403767;28;1501;-67
2023/03/20 19:53:17;;;;;;;;;;;;;;;8.27;100.00;95909.91;10404221;28;1926;-69
2023/03/20 19:58:20;;;;;;;;;;;;;;;8.28;100.00;95906.19;10408635;28;1450;-69
2023/03/20 20:03:23;;;;;;;;;;;;;;;8.28;100.00;95906.19;10409415;28;1558;-68
2023/03/20 20:08:26;;;;;;;;;;;;;;;8.41;100.00;95900.44;10408969;28;1504;-67
2023/03/20 20:13:46;;;;;;;;;;;;;;;8.48;100.00;95900.22;10402525;28;1914;-66
2023/03/20 20:19:17;;;;;;;;;;;;;;;8.52;100.00;95901.28;10409817;28;1529;-67
2023/03/20 20:24:29;;;;;;;;;;;;;;;8.46;100.00;95896.97;10405253;28;1540;-68
2023/03/20 20:29:32;;;;;;;;;;;;;;;8.52;100.00;95901.28;10413911;28;1911;-68
2023/03/20 20:34:35;;;;;;;;;;;;;;;8.54;100.00;95899.19;10400478;28;1535;-66
2023/03/20 20:39:57;;;;;;;;;;;;;;;8.62;100.00;95901.38;10403599;28;1449;-67
2023/03/20 20:44:59;;;;;;;;;;;;;;;8.71;100.00;95905.19;10402129;28;1966;-68
2023/03/20 20:50:03;;;;;;;;;;;;;;;8.60;100.00;95898.97;10413368;28;2114;-68
2023/03/20 20:55:06;;;;;;;;;;;;;;;8.65;100.00;95904.38;10418275;28;1981;-66
2023/03/20 21:00:24;;;;;;;;;;;;;;;8.59;100.00;95908.06;10416152;28;1922;-68
2023/03/20 21:05:46;;;;;;;;;;;;;;;8.56;100.00;95903.22;10417631;28;2010;-67
2023/03/20 21:10:49;;;;;;;;;;;;;;;8.37;100.00;95910.84;10417418;28;2052;-68
2023/03/20 21:15:52;;;;;;;;;;;;;;;8.22;100.00;95901.84;10409640;28;1983;-67
2023/03/20 21:20:55;;;;;;;;;;;;;;;8.03;100.00;95904.91;10389816;28;2193;-69
2023/03/20 21:25:57;;;;;;;;;;;;;;;7.90;100.00;95904.50;10424638;28;1984;-68
2023/03/20 21:31:00;;;;;;;;;;;;;;;7.72;100.00;95909.16;10398904;28;2001;-67
2023/03/20 21:36:23;;;;;;;;;;;;;;;7.61;100.00;95909.28;10396052;28;1956;-67
2023/03/20 21:41:26;;;;;;;;;;;;;;;7.49;100.00;95909.41;10403347;28;2150;-67
2023/03/20 21:46:29;;;;;;;;;;;;;;;7.37;100.00;95906.88;10399461;28;2055;-66
2023/03/20 21:51:53;;;;;;;;;;;;;;;7.25;100.00;95898.19;10398419;28;1965;-66
2023/03/20 21:57:16;;;;;;;;;;;;;;;7.21;100.00;95907.78;10393452;28;2139;-66
2023/03/20 22:02:38;;;;;;;;;;;;;;;7.12;100.00;95896.69;10400944;28;1906;-67
2023/03/20 22:07:45;;;;;;;;;;;;;;;7.10;100.00;95900.66;10394549;28;1985;-68
2023/03/20 22:13:07;;;;;;;;;;;;;;;6.98;100.00;95914.94;10393629;28;1985;-66
2023/03/20 22:18:30;;;;;;;;;;;;;;;6.91;100.00;95911.66;10385005;28;1990;-67
2023/03/20 22:23:53;;;;;;;;;;;;;;;6.89;100.00;95910.28;10395572;28;2090;-66
2023/03/20 22:29:16;;;;;;;;;;;;;;;6.86;100.00;95916.13;10391520;28;2099;-68
2023/03/20 22:34:38;;;;;;;;;;;;;;;6.90;100.00;95912.72;10416036;28;2074;-67
2023/03/20 22:40:02;;;;;;;;;;;;;;;7.03;100.00;95908.88;10393124;28;2027;-67
2023/03/20 22:45:25;;;;;;;;;;;;;;;7.18;100.00;95903.72;10383993;28;2096;-66
2023/03/20 22:50:36;;;;;;;;;;;;;;;7.23;100.00;95901.09;10386963;28;2025;-65
2023/03/20 22:55:39;;;;;;;;;;;;;;;7.15;100.00;95903.41;10387102;28;1957;-67
2023/03/20 23:00:42;;;;;;;;;;;;;;;7.10;100.00;95898.00;10390481;28;2025;-66
2023/03/20 23:05:47;;;;;;;;;;;;;;;7.07;100.00;95898.50;10395358;28;2009;-67
2023/03/20 23:10:50;;;;;;;;;;;;;;;7.16;100.00;95892.47;10394400;28;2072;-69
2023/03/20 23:15:53;;;;;;;;;;;;;;;7.32;100.00;95899.63;10386806;28;2006;-67
2023/03/20 23:20:56;;;;;;;;;;;;;;;7.38;100.00;95892.47;10388617;28;2042;-66
2023/03/20 23:25:58;;;;;;;;;;;;;;;7.36;100.00;95883.88;10394380;28;1974;-67
2023/03/20 23:31:04;;;;;;;;;;;;;;;7.40;100.00;95884.19;10392616;28;1991;-66
2023/03/20 23:36:19;;;;;;;;;;;;;;;7.43;100.00;95881.00;10403090;28;2054;-66
2023/03/20 23:41:37;;;;;;;;;;;;;;;7.47;100.00;95879.44;10398507;28;2063;-68
2023/03/20 23:47:00;;;;;;;;;;;;;;;7.57;100.00;95879.53;10394023;28;1977;-65
2023/03/20 23:52:07;;;;;;;;;;;;;;;7.68;100.00;95873.25;10398244;28;2128;-67
2023/03/20 23:57:09;;;;;;;;;;;;;;;7.70;100.00;95873.81;10399276;28;2062;-67
